createdAt,value
2022-08-17T00:01:17.862Z,22.01
2022-08-17T00:06:26.478Z,21.87
2022-08-17T00:11:34.730Z,21.97
2022-08-17T00:16:55.803Z,21.80
2022-08-17T00:22:33.752Z,21.71
2022-08-17T00:27:20.490Z,21.83
2022-08-17T00:33:14.483Z,21.93
2022-08-17T00:37:43.898Z,22.01
2022-08-17T00:42:46.180Z,22.11
2022-08-17T00:47:48.221Z,22.19
2022-08-17T00:52:54.799Z,22.23
2022-08-17T00:58:00.021Z,22.31
2022-08-17T01:03:15.179Z,22.31
2022-08-17T01:08:18.946Z,22.33
2022-08-17T01:13:22.315Z,22.35
2022-08-17T01:18:27.746Z,22.34
2022-08-17T01:23:29.387Z,22.29
2022-08-17T01:28:54.348Z,22.24
2022-08-17T01:33:55.746Z,22.17
2022-08-17T01:38:57.256Z,22.21
2022-08-17T01:44:02.459Z,22.18
2022-08-17T01:49:10.855Z,22.15
2022-08-17T01:54:14.913Z,22.17
2022-08-17T01:59:18.780Z,22.10
2022-08-17T02:04:20.360Z,22.03
2022-08-17T02:09:25.686Z,22.03
2022-08-17T02:14:27.465Z,22.03
2022-08-17T02:19:31.385Z,22.02
2022-08-17T02:25:00.360Z,21.93
2022-08-17T02:29:57.636Z,21.85
2022-08-17T02:35:00.317Z,21.90
2022-08-17T02:40:08.705Z,21.77
2022-08-17T02:45:13.687Z,21.75
2022-08-17T02:50:17.909Z,21.69
2022-08-17T02:55:24.149Z,21.63
2022-08-17T03:00:30.338Z,21.59
2022-08-17T03:05:34.460Z,21.57
2022-08-17T03:10:35.993Z,21.54
2022-08-17T03:15:47.311Z,21.48
2022-08-17T03:20:50.129Z,21.49
2022-08-17T03:25:53.069Z,21.44
2022-08-17T03:30:55.273Z,21.42
2022-08-17T03:35:57.098Z,21.36
2022-08-17T03:40:59.889Z,21.25
2022-08-17T03:46:03.045Z,21.29
2022-08-17T03:51:05.596Z,21.14
2022-08-17T03:56:07.086Z,21.15
2022-08-17T04:01:09.461Z,21.15
2022-08-17T04:06:11.021Z,21.17
2022-08-17T04:11:19.953Z,21.08
2022-08-17T04:16:21.362Z,21.16
2022-08-17T04:21:23.641Z,21.18
2022-08-17T04:26:52.822Z,21.26
2022-08-17T04:31:46.884Z,21.26
2022-08-17T04:36:50.530Z,21.29
2022-08-17T04:41:52.060Z,21.30
2022-08-17T04:46:53.672Z,21.33
2022-08-17T04:51:59.992Z,21.41
2022-08-17T04:57:05.883Z,21.45
2022-08-17T05:02:07.430Z,21.49
2022-08-17T05:07:09.311Z,21.56
2022-08-17T05:12:10.816Z,21.63
2022-08-17T05:17:12.259Z,21.73
2022-08-17T05:22:17.332Z,21.80
2022-08-17T05:27:19.273Z,21.81
2022-08-17T05:32:39.055Z,21.90
2022-08-17T05:37:41.746Z,21.89
2022-08-17T05:42:51.589Z,21.95
2022-08-17T05:47:54.308Z,22.04
2022-08-17T05:53:20.795Z,22.09
2022-08-17T05:58:51.352Z,22.12
2022-08-17T06:04:10.160Z,22.30
2022-08-17T06:09:44.188Z,22.29
2022-08-17T06:15:08.732Z,22.31
2022-08-17T06:20:44.465Z,22.36
2022-08-17T06:25:51.954Z,22.35
2022-08-17T06:31:04.826Z,22.34
2022-08-17T06:36:26.082Z,22.56
2022-08-17T06:41:50.919Z,22.73
2022-08-17T06:52:59.561Z,23.28
2022-08-17T06:58:05.379Z,23.50
2022-08-17T07:03:27.230Z,23.61
2022-08-17T07:14:33.260Z,24.02
2022-08-17T07:32:04.066Z,24.65
2022-08-17T07:37:24.937Z,24.83
2022-08-17T07:42:26.986Z,24.66
2022-08-17T07:47:30.628Z,24.88
2022-08-17T07:52:50.895Z,24.87
2022-08-17T07:57:59.102Z,24.83
2022-08-17T08:03:11.383Z,24.78
2022-08-17T08:08:37.223Z,24.93
2022-08-17T08:13:40.864Z,24.81
2022-08-17T08:18:55.429Z,24.90
2022-08-17T08:24:20.868Z,24.64
2022-08-17T08:29:54.442Z,24.61
2022-08-17T08:35:21.609Z,24.41
2022-08-17T08:40:36.786Z,24.34
2022-08-17T08:45:44.352Z,24.33
2022-08-17T08:50:54.582Z,24.17
2022-08-17T08:56:04.670Z,23.86
2022-08-17T09:01:17.599Z,23.56
2022-08-17T09:06:45.169Z,23.64
2022-08-17T09:12:03.912Z,23.78
2022-08-17T09:17:19.292Z,23.82
2022-08-17T09:22:29.700Z,23.68
2022-08-17T09:27:42.492Z,23.70
2022-08-17T09:32:47.160Z,23.53
2022-08-17T09:38:06.015Z,23.40
2022-08-17T09:43:18.720Z,23.34
2022-08-17T09:48:28.076Z,23.25
2022-08-17T09:53:31.977Z,22.92
2022-08-17T09:58:45.128Z,22.90
2022-08-17T10:04:12.979Z,22.98
2022-08-17T10:09:21.798Z,23.03
2022-08-17T10:14:44.080Z,23.04
2022-08-17T10:19:58.101Z,22.95
2022-08-17T10:25:23.154Z,23.26
2022-08-17T10:30:29.820Z,23.29
2022-08-17T10:35:31.131Z,23.84
2022-08-17T10:40:37.947Z,23.87
2022-08-17T10:46:30.831Z,23.69
2022-08-17T10:51:38.948Z,23.96
2022-08-17T10:56:46.680Z,24.19
2022-08-17T11:02:22.174Z,25.47
2022-08-17T11:07:54.851Z,26.85
2022-08-17T11:13:15.000Z,28.09
2022-08-17T11:18:53.355Z,28.46
2022-08-17T11:24:06.026Z,26.48
2022-08-17T11:29:18.993Z,27.43
2022-08-17T11:34:26.576Z,27.46
2022-08-17T11:39:43.442Z,27.90
2022-08-17T11:45:31.805Z,27.33
2022-08-17T11:50:37.067Z,26.86
2022-08-17T11:55:41.917Z,26.97
2022-08-17T12:00:46.115Z,27.20
2022-08-17T12:05:48.347Z,27.94
2022-08-17T12:10:58.424Z,28.82
2022-08-17T12:16:00.531Z,29.31
2022-08-17T12:21:05.028Z,29.65
2022-08-17T12:26:22.113Z,31.20
2022-08-17T12:31:30.837Z,30.32
2022-08-17T12:36:33.586Z,29.58
2022-08-17T12:41:40.682Z,31.14
2022-08-17T12:47:04.750Z,31.43
2022-08-17T12:52:14.280Z,31.34
2022-08-17T12:57:20.355Z,29.91
2022-08-17T13:02:32.273Z,30.78
2022-08-17T13:07:40.540Z,32.15
2022-08-17T13:12:41.939Z,30.53
2022-08-17T13:17:43.726Z,31.88
2022-08-17T13:22:53.335Z,31.15
2022-08-17T13:27:56.912Z,31.02
2022-08-17T13:32:59.298Z,31.12
2022-08-17T13:38:07.895Z,31.29
2022-08-17T13:43:10.303Z,30.36
2022-08-17T13:48:30.492Z,31.19
2022-08-17T13:53:36.436Z,29.96
2022-08-17T13:59:00.699Z,30.50
2022-08-17T14:04:08.580Z,29.62
2022-08-17T14:09:10.401Z,30.07
2022-08-17T14:14:13.077Z,30.54
2022-08-17T14:19:15.016Z,29.92
2022-08-17T14:24:27.495Z,30.13
2022-08-17T14:29:43.195Z,30.61
2022-08-17T14:34:44.929Z,29.82
2022-08-17T14:39:47.495Z,30.06
2022-08-17T14:44:49.154Z,29.87
2022-08-17T14:49:50.606Z,29.00
2022-08-17T14:54:53.100Z,29.61
2022-08-17T14:59:55.657Z,28.63
2022-08-17T15:05:02.095Z,28.78
2022-08-17T15:10:03.925Z,28.94
2022-08-17T15:15:06.949Z,28.57
2022-08-17T15:20:14.146Z,28.11
2022-08-17T15:25:17.276Z,28.16
2022-08-17T15:30:18.946Z,28.08
2022-08-17T15:35:22.090Z,27.61
2022-08-17T15:40:29.042Z,27.78
2022-08-17T15:45:30.634Z,27.95
2022-08-17T15:50:32.540Z,27.78
2022-08-17T15:55:34.637Z,27.89
2022-08-17T16:00:44.124Z,27.69
2022-08-17T16:05:54.748Z,26.99
2022-08-17T16:10:57.700Z,27.05
2022-08-17T16:15:59.149Z,27.46
2022-08-17T16:21:03.078Z,27.40
2022-08-17T16:26:04.689Z,27.17
2022-08-17T16:31:08.119Z,26.85
2022-08-17T16:36:11.014Z,27.14
2022-08-17T16:41:15.170Z,27.02
2022-08-17T16:46:16.658Z,27.02
2022-08-17T16:51:18.192Z,27.05
2022-08-17T16:56:20.395Z,27.21
2022-08-17T17:01:21.979Z,26.86
2022-08-17T17:06:54.103Z,26.84
2022-08-17T17:11:59.523Z,26.76
2022-08-17T17:17:10.584Z,26.72
2022-08-17T17:22:19.293Z,26.42
2022-08-17T17:27:20.647Z,26.02
2022-08-17T17:32:34.010Z,26.10
2022-08-17T17:37:36.301Z,26.07
2022-08-17T17:42:41.889Z,26.18
2022-08-17T17:47:44.789Z,26.10
2022-08-17T17:53:02.913Z,25.92
2022-08-17T17:58:16.515Z,25.69
2022-08-17T18:03:53.451Z,25.49
2022-08-17T18:09:06.809Z,25.60
2022-08-17T18:14:14.179Z,25.51
2022-08-17T18:19:18.732Z,25.03
2022-08-17T18:24:35.991Z,24.99
2022-08-17T18:29:46.221Z,25.00
2022-08-17T18:34:50.904Z,24.87
2022-08-17T18:39:52.430Z,24.83
2022-08-17T18:44:55.668Z,24.62
2022-08-17T18:50:19.325Z,24.44
2022-08-17T18:55:27.130Z,24.29
2022-08-17T19:00:34.627Z,24.22
2022-08-17T19:05:43.159Z,24.19
2022-08-17T19:10:47.337Z,24.11
2022-08-17T19:16:14.246Z,23.93
2022-08-17T19:21:22.335Z,23.70
2022-08-17T19:26:54.896Z,23.53
2022-08-17T19:31:50.093Z,23.45
2022-08-17T19:37:01.966Z,23.29
2022-08-17T19:42:28.299Z,23.26
2022-08-17T19:48:03.116Z,23.17
2022-08-17T19:54:01.588Z,23.08
2022-08-17T19:58:55.117Z,22.98
2022-08-17T20:04:06.627Z,22.99
2022-08-17T20:09:24.942Z,22.87
2022-08-17T20:14:39.631Z,22.87
2022-08-17T20:20:19.617Z,22.80
2022-08-17T20:25:32.577Z,22.75
2022-08-17T20:30:41.922Z,22.54
2022-08-17T20:35:59.754Z,22.40
2022-08-17T20:41:03.931Z,22.39
2022-08-17T20:46:33.415Z,22.33
2022-08-17T20:51:41.460Z,22.20
2022-08-17T20:57:02.708Z,22.22
2022-08-17T21:02:19.354Z,22.21
2022-08-17T21:07:51.955Z,21.94
2022-08-17T21:13:02.156Z,21.92
2022-08-17T21:18:22.474Z,21.57
2022-08-17T21:23:41.250Z,21.56
2022-08-17T21:29:01.667Z,21.54
2022-08-17T21:34:21.581Z,21.38
2022-08-17T21:39:33.589Z,21.34
2022-08-17T21:44:40.238Z,21.37
2022-08-17T21:49:42.025Z,21.15
2022-08-17T21:54:51.419Z,21.14
2022-08-17T21:59:58.992Z,21.12
2022-08-17T22:05:10.393Z,21.02
2022-08-17T22:10:36.986Z,20.79
2022-08-17T22:15:40.950Z,20.83
2022-08-17T22:20:42.422Z,20.82
2022-08-17T22:25:58.044Z,20.68
2022-08-17T22:31:02.206Z,20.66
2022-08-17T22:36:22.603Z,20.54
2022-08-17T22:41:53.713Z,20.58
2022-08-17T22:47:01.970Z,20.31
2022-08-17T22:52:32.185Z,20.46
2022-08-17T22:57:36.189Z,20.36
2022-08-17T23:02:55.196Z,20.22
2022-08-17T23:07:57.601Z,20.23
2022-08-17T23:13:02.104Z,20.11
2022-08-17T23:18:03.938Z,20.08
2022-08-17T23:23:07.297Z,19.94
2022-08-17T23:28:08.762Z,20.13
2022-08-17T23:33:35.039Z,19.94
2022-08-17T23:38:36.746Z,19.99
2022-08-17T23:43:39.468Z,19.89
2022-08-17T23:48:41.039Z,19.80
2022-08-17T23:53:45.876Z,19.69
2022-08-17T23:58:47.307Z,19.60
